createdAt,value
2022-10-28T00:01:15.028Z,11.42
2022-10-28T00:03:53.153Z,11.44
2022-10-28T00:06:21.781Z,11.25
2022-10-28T00:08:49.315Z,11.21
2022-10-28T00:11:17.670Z,11.21
2022-10-28T00:13:46.064Z,11.47
2022-10-28T00:16:14.314Z,11.45
2022-10-28T00:18:41.805Z,11.52
2022-10-28T00:21:14.140Z,11.54
2022-10-28T00:23:42.252Z,11.40
2022-10-28T00:26:10.784Z,11.38
2022-10-28T00:28:45.001Z,11.46
2022-10-28T00:31:12.709Z,11.49
2022-10-28T00:33:40.249Z,11.42
2022-10-28T00:36:27.844Z,11.28
2022-10-28T00:38:55.583Z,11.32
2022-10-28T00:41:27.262Z,11.29
2022-10-28T00:43:55.700Z,11.25
2022-10-28T00:46:28.711Z,11.46
2022-10-28T00:49:06.461Z,11.51
2022-10-28T00:51:33.893Z,11.56
2022-10-28T00:54:01.222Z,11.38
2022-10-28T00:56:32.570Z,11.31
2022-10-28T00:59:00.860Z,11.25
2022-10-28T01:01:28.520Z,11.52
2022-10-28T01:03:58.492Z,11.42
2022-10-28T01:06:26.926Z,11.13
2022-10-28T01:08:57.525Z,11.26
2022-10-28T01:11:30.718Z,11.25
2022-10-28T01:13:58.145Z,11.42
2022-10-28T01:16:44.380Z,11.39
2022-10-28T01:19:20.594Z,11.38
2022-10-28T01:21:59.085Z,11.34
2022-10-28T01:24:47.295Z,11.36
2022-10-28T01:27:19.834Z,11.35
2022-10-28T01:29:56.245Z,11.41
2022-10-28T01:32:30.793Z,11.48
2022-10-28T01:34:58.143Z,11.61
2022-10-28T01:37:35.476Z,11.62
2022-10-28T01:40:11.442Z,11.56
2022-10-28T01:42:44.847Z,11.46
2022-10-28T01:45:17.738Z,11.47
2022-10-28T01:47:53.708Z,11.42
2022-10-28T01:50:25.523Z,11.37
2022-10-28T01:52:54.172Z,11.48
2022-10-28T01:55:27.095Z,11.44
2022-10-28T01:57:55.311Z,11.51
2022-10-28T02:00:22.743Z,11.39
2022-10-28T02:02:50.816Z,11.40
2022-10-28T02:05:38.082Z,11.53
2022-10-28T02:08:25.765Z,11.39
2022-10-28T02:10:53.143Z,11.57
2022-10-28T02:13:20.441Z,11.55
2022-10-28T02:15:54.284Z,11.49
2022-10-28T02:18:26.212Z,11.57
2022-10-28T02:20:55.417Z,11.31
2022-10-28T02:23:25.840Z,11.11
2022-10-28T02:26:06.339Z,11.25
2022-10-28T02:28:46.843Z,11.30
2022-10-28T02:31:34.750Z,11.43
2022-10-28T02:34:22.362Z,11.35
2022-10-28T02:36:51.247Z,11.36
2022-10-28T02:39:19.723Z,11.28
2022-10-28T02:41:58.232Z,11.45
2022-10-28T02:44:28.053Z,11.46
2022-10-28T02:46:56.191Z,11.45
2022-10-28T02:49:23.507Z,11.26
2022-10-28T02:51:55.304Z,11.27
2022-10-28T02:54:32.126Z,11.21
2022-10-28T02:57:01.263Z,11.17
2022-10-28T02:59:28.774Z,11.22
2022-10-28T03:01:56.223Z,11.36
2022-10-28T03:04:23.662Z,11.32
2022-10-28T03:06:51.946Z,11.34
2022-10-28T03:09:19.416Z,11.30
2022-10-28T03:11:46.740Z,11.44
2022-10-28T03:14:15.428Z,11.47
2022-10-28T03:16:44.412Z,11.39
2022-10-28T03:19:11.823Z,11.56
2022-10-28T03:21:39.264Z,11.63
2022-10-28T03:24:06.740Z,11.50
2022-10-28T03:26:34.122Z,11.24
2022-10-28T03:29:01.447Z,11.38
2022-10-28T03:31:28.942Z,11.21
2022-10-28T03:33:56.417Z,11.16
2022-10-28T03:36:24.083Z,11.21
2022-10-28T03:38:51.516Z,11.32
2022-10-28T03:41:21.367Z,11.20
2022-10-28T03:43:50.251Z,11.26
2022-10-28T03:46:17.581Z,11.31
2022-10-28T03:48:44.965Z,11.29
2022-10-28T03:51:12.312Z,11.35
2022-10-28T03:53:40.041Z,11.32
2022-10-28T03:56:07.585Z,11.53
2022-10-28T03:58:37.303Z,11.56
2022-10-28T04:01:07.758Z,11.32
2022-10-28T04:03:35.117Z,11.44
2022-10-28T04:06:02.415Z,11.32
2022-10-28T04:08:33.545Z,11.44
2022-10-28T04:11:00.975Z,11.50
2022-10-28T04:13:28.477Z,11.47
2022-10-28T04:15:55.813Z,11.41
2022-10-28T04:18:23.325Z,11.27
2022-10-28T04:20:50.748Z,11.16
2022-10-28T04:23:21.091Z,11.19
2022-10-28T04:25:51.612Z,11.34
2022-10-28T04:28:19.079Z,11.29
2022-10-28T04:30:47.404Z,11.45
2022-10-28T04:33:14.754Z,11.44
2022-10-28T04:35:43.315Z,11.52
2022-10-28T04:38:11.101Z,11.23
2022-10-28T04:40:38.809Z,11.40
2022-10-28T04:43:08.610Z,11.44
2022-10-28T04:45:37.851Z,11.34
2022-10-28T04:48:05.411Z,11.36
2022-10-28T04:50:32.933Z,11.41
2022-10-28T04:53:00.528Z,11.46
2022-10-28T04:55:28.083Z,11.41
2022-10-28T04:57:55.514Z,11.33
2022-10-28T05:00:23.311Z,11.24
2022-10-28T05:02:51.700Z,11.12
2022-10-28T05:05:19.093Z,11.46
2022-10-28T05:07:47.052Z,11.48
2022-10-28T05:10:18.354Z,11.40
2022-10-28T05:12:45.881Z,11.29
2022-10-28T05:15:13.516Z,11.26
2022-10-28T05:17:45.583Z,11.22
2022-10-28T05:20:13.306Z,11.11
2022-10-28T05:22:47.593Z,11.04
2022-10-28T05:25:15.164Z,11.20
2022-10-28T05:27:42.640Z,11.35
2022-10-28T05:30:10.325Z,11.49
2022-10-28T05:32:37.843Z,11.50
2022-10-28T05:35:05.417Z,11.66
2022-10-28T05:37:32.994Z,11.58
2022-10-28T05:40:01.332Z,11.59
2022-10-28T05:42:28.687Z,11.50
2022-10-28T05:44:55.979Z,11.40
2022-10-28T05:47:23.270Z,11.38
2022-10-28T05:49:50.578Z,11.37
2022-10-28T05:52:18.939Z,11.47
2022-10-28T05:54:46.258Z,11.81
2022-10-28T05:57:13.691Z,11.84
2022-10-28T05:59:42.047Z,11.65
2022-10-28T06:02:15.316Z,11.75
2022-10-28T06:04:45.091Z,11.98
2022-10-28T06:07:12.681Z,11.85
2022-10-28T06:09:39.970Z,11.99
2022-10-28T06:12:06.970Z,11.95
2022-10-28T06:14:34.524Z,11.98
2022-10-28T06:17:02.517Z,12.07
2022-10-28T06:19:29.910Z,12.10
2022-10-28T06:21:59.112Z,11.87
2022-10-28T06:24:26.432Z,11.99
2022-10-28T06:26:53.861Z,12.18
2022-10-28T06:29:21.150Z,12.14
2022-10-28T06:31:48.616Z,12.19
2022-10-28T06:34:15.930Z,12.21
2022-10-28T06:36:43.633Z,12.37
2022-10-28T06:39:11.018Z,12.44
2022-10-28T06:41:38.508Z,12.35
2022-10-28T06:44:05.950Z,12.41
2022-10-28T06:46:34.786Z,12.35
2022-10-28T06:49:04.744Z,12.65
2022-10-28T06:51:32.225Z,12.63
2022-10-28T06:54:01.013Z,12.72
2022-10-28T06:56:28.455Z,12.35
2022-10-28T06:58:55.747Z,12.58
2022-10-28T07:01:23.253Z,12.80
2022-10-28T07:03:50.641Z,12.86
2022-10-28T07:06:18.060Z,12.87
2022-10-28T07:08:45.402Z,13.13
2022-10-28T07:11:12.885Z,13.37
2022-10-28T07:13:41.731Z,12.91
2022-10-28T07:16:10.769Z,12.85
2022-10-28T07:18:39.370Z,12.77
2022-10-28T07:21:06.761Z,12.76
2022-10-28T07:23:34.450Z,12.86
2022-10-28T07:26:01.824Z,13.02
2022-10-28T07:28:29.308Z,13.18
2022-10-28T07:31:00.633Z,13.12
2022-10-28T07:33:28.139Z,12.87
2022-10-28T07:35:55.482Z,12.92
2022-10-28T07:38:23.225Z,12.99
2022-10-28T07:40:50.548Z,12.87
2022-10-28T07:43:20.001Z,12.86
2022-10-28T07:45:47.645Z,12.79
2022-10-28T07:48:15.464Z,13.05
2022-10-28T07:50:42.892Z,12.84
2022-10-28T07:53:10.354Z,12.93
2022-10-28T07:55:39.326Z,12.84
2022-10-28T07:58:06.785Z,12.99
2022-10-28T08:00:35.064Z,12.94
2022-10-28T08:03:02.738Z,12.85
2022-10-28T08:05:30.315Z,13.08
2022-10-28T08:07:57.734Z,13.04
2022-10-28T08:10:25.246Z,13.20
2022-10-28T08:12:52.816Z,13.19
2022-10-28T08:15:23.631Z,13.33
2022-10-28T08:17:51.725Z,13.44
2022-10-28T08:20:19.910Z,13.33
2022-10-28T08:22:47.323Z,13.38
2022-10-28T08:25:14.617Z,13.55
2022-10-28T08:27:42.377Z,13.61
2022-10-28T08:30:10.729Z,13.90
2022-10-28T08:32:38.185Z,13.95
2022-10-28T08:35:05.833Z,13.95
2022-10-28T08:37:33.429Z,14.07
2022-10-28T08:40:00.852Z,13.89
2022-10-28T08:42:46.696Z,13.70
2022-10-28T08:45:15.884Z,13.51
2022-10-28T08:48:03.812Z,13.44
2022-10-28T08:50:32.061Z,13.73
2022-10-28T08:53:16.856Z,13.68
2022-10-28T08:55:45.869Z,13.81
2022-10-28T08:58:40.692Z,13.75
2022-10-28T09:01:10.339Z,13.79
2022-10-28T09:03:39.287Z,13.70
2022-10-28T09:06:08.400Z,13.56
2022-10-28T09:11:27.297Z,13.41
2022-10-28T09:14:11.258Z,13.70
2022-10-28T09:16:57.532Z,13.96
2022-10-28T09:19:25.698Z,14.21
2022-10-28T09:33:50.964Z,14.35
2022-10-28T09:39:11.371Z,14.40
2022-10-28T09:41:39.391Z,14.12
2022-10-28T09:46:58.522Z,14.13
2022-10-28T09:49:26.620Z,13.87
2022-10-28T09:54:54.484Z,13.76
2022-10-28T09:57:22.498Z,14.10
2022-10-28T09:59:49.967Z,13.93
2022-10-28T10:02:27.527Z,14.06
2022-10-28T10:13:17.841Z,14.03
2022-10-28T10:15:49.360Z,13.91
2022-10-28T10:18:17.592Z,13.74
2022-10-28T10:23:35.061Z,13.36
2022-10-28T10:26:12.020Z,13.56
2022-10-28T10:31:29.869Z,13.31
2022-10-28T10:33:57.337Z,13.72
2022-10-28T10:36:28.896Z,14.04
2022-10-28T10:38:57.048Z,14.22
2022-10-28T10:41:34.648Z,14.11
2022-10-28T10:44:02.185Z,14.12
2022-10-28T10:46:30.192Z,14.17
2022-10-28T10:51:57.214Z,13.72
2022-10-28T10:54:28.305Z,13.92
2022-10-28T10:57:06.431Z,13.95
2022-10-28T10:59:34.129Z,13.70
2022-10-28T11:02:01.656Z,13.84
2022-10-28T11:09:59.929Z,14.07
2022-10-28T11:15:17.234Z,14.16
2022-10-28T11:17:54.170Z,13.89
2022-10-28T11:20:26.202Z,13.97
2022-10-28T11:26:06.031Z,13.98
2022-10-28T11:31:30.418Z,14.16
2022-10-28T11:34:03.625Z,14.19
2022-10-28T11:36:37.774Z,14.24
2022-10-28T11:39:08.406Z,14.45
2022-10-28T11:41:57.653Z,14.64
2022-10-28T11:47:10.624Z,14.47
2022-10-28T11:50:01.748Z,14.32
2022-10-28T11:55:26.552Z,14.53
2022-10-28T11:57:58.239Z,14.31
2022-10-28T12:00:26.029Z,14.02
2022-10-28T12:03:12.280Z,13.83
2022-10-28T12:09:01.295Z,14.26
2022-10-28T12:14:27.578Z,13.87
2022-10-28T12:17:06.662Z,13.94
2022-10-28T12:19:37.630Z,14.09
2022-10-28T12:30:27.164Z,14.31
2022-10-28T12:33:03.320Z,14.32
2022-10-28T12:38:30.887Z,14.05
2022-10-28T12:41:03.047Z,14.04
2022-10-28T12:43:33.004Z,13.76
2022-10-28T12:46:00.355Z,13.66
2022-10-28T12:48:33.980Z,13.72
2022-10-28T12:54:03.649Z,13.83
2022-10-28T12:56:36.421Z,13.90
2022-10-28T13:01:49.631Z,13.84
2022-10-28T13:04:17.259Z,13.87
2022-10-28T13:06:47.319Z,13.64
2022-10-28T18:26:11.025Z,12.18
2022-10-28T18:31:23.660Z,12.20
2022-10-28T18:33:51.523Z,12.22
2022-10-28T18:36:20.009Z,12.29
2022-10-28T18:47:05.071Z,12.24
2022-10-28T18:49:32.410Z,12.33
2022-10-28T18:54:45.525Z,12.23
2022-10-28T19:00:17.216Z,12.07
2022-10-28T19:02:47.785Z,12.23
2022-10-28T19:08:01.445Z,12.11
2022-10-28T19:10:30.262Z,12.12
2022-10-28T19:12:57.811Z,12.35
2022-10-28T19:26:33.572Z,12.20
2022-10-28T19:31:49.332Z,12.22
2022-10-28T19:39:46.671Z,12.02
2022-10-28T19:47:47.044Z,11.98
2022-10-28T19:50:14.665Z,12.10
2022-10-28T19:52:45.910Z,12.06
2022-10-28T19:55:15.031Z,12.09
2022-10-28T19:57:44.935Z,12.20
2022-10-28T20:00:14.326Z,12.10
2022-10-28T20:02:42.149Z,12.08
2022-10-28T20:05:09.646Z,11.97
2022-10-28T20:07:37.443Z,12.02
2022-10-28T20:21:07.041Z,12.26
2022-10-28T20:23:35.980Z,12.12
2022-10-28T20:26:03.932Z,12.21
2022-10-28T20:28:31.732Z,12.06
2022-10-28T20:31:02.457Z,12.06
2022-10-28T20:33:31.027Z,12.10
2022-10-28T20:36:01.520Z,12.24
2022-10-28T20:38:29.561Z,12.22
2022-10-28T20:41:00.734Z,12.16
2022-10-28T20:43:28.706Z,12.02
2022-10-28T20:51:31.630Z,12.36
2022-10-28T20:53:59.491Z,12.30
2022-10-28T21:01:58.418Z,11.85
2022-10-28T21:04:26.686Z,12.09
2022-10-28T21:06:54.365Z,12.20
2022-10-28T21:09:22.317Z,12.23
2022-10-28T21:14:35.543Z,12.00
2022-10-28T21:17:02.915Z,12.00
2022-10-28T21:19:30.414Z,12.11
2022-10-28T21:21:59.105Z,12.28
2022-10-28T21:24:27.107Z,12.15
2022-10-28T21:26:54.429Z,12.08
2022-10-28T21:32:06.795Z,12.19
2022-10-28T21:37:19.594Z,12.15
2022-10-28T21:42:36.331Z,12.30
2022-10-28T21:56:09.155Z,12.03
2022-10-28T21:58:38.899Z,12.06
2022-10-28T22:01:07.458Z,11.93
2022-10-28T22:06:21.271Z,12.02
2022-10-28T22:11:34.738Z,11.87
2022-10-28T22:14:02.652Z,11.77
2022-10-28T22:16:31.602Z,11.75
2022-10-28T22:21:46.009Z,11.75
2022-10-28T22:24:13.447Z,11.85
2022-10-28T22:29:26.459Z,11.64
2022-10-28T22:31:53.955Z,11.60
2022-10-28T22:34:21.524Z,11.49
2022-10-28T22:36:49.348Z,11.58
2022-10-28T22:42:02.108Z,11.72
2022-10-28T22:44:29.614Z,11.60
2022-10-28T22:46:57.184Z,11.65
2022-10-28T22:49:26.939Z,11.46
2022-10-28T22:51:57.843Z,11.64
2022-10-28T22:54:25.512Z,11.65
2022-10-28T22:56:53.044Z,11.62
2022-10-28T23:04:50.361Z,11.43
2022-10-28T23:07:17.911Z,11.39
2022-10-28T23:09:45.265Z,11.33
2022-10-28T23:12:14.522Z,11.45
2022-10-28T23:14:41.902Z,11.41
2022-10-28T23:17:09.536Z,11.45
2022-10-28T23:19:39.638Z,11.42
2022-10-28T23:27:41.271Z,11.38
2022-10-28T23:32:53.960Z,11.49
2022-10-28T23:35:22.487Z,11.62
2022-10-28T23:37:50.003Z,11.37
2022-10-28T23:40:17.383Z,11.60
2022-10-28T23:42:44.991Z,11.43
2022-10-28T23:45:12.328Z,11.47
2022-10-28T23:47:39.700Z,11.47
2022-10-28T23:52:55.886Z,11.54
2022-10-28T23:55:23.591Z,11.46
2022-10-28T23:57:51.228Z,11.62
